»·PEaware :: N587K KSNA-KCRQ

N587K :: KSNA-KCRQ

FLIGHT INFORMATION

Flight Status: Arrived
Operator: Privately registered:
United States
More flights under this callsign
Pilot: Ryan S. (25666)
Aircraft: PIPER PA-28 CHEROKEE ARCHER
(P28A)
More flights by this aircraft type
Origin: KSNA John Wayne-Orange Co
United States
Destination: KCRQ McClellan-Palomar
United States
More flights between these airports :: More routes between these airports
Route: V23 OCN
File this flight plan on PilotEdge
Remarks: I-2 rating
Altitude:
(Current/Filed)
5,000ft
Speed:
(Current/Filed)
110kts
Departed: 01-Dec-19 08:39 PM
Arrived: 01-Dec-19 09:44 PM
Distance/Time
Traveled:
44nm/1:04
Distance/Time
To Go:
Arrived

Flight Plot

Page will automatically refresh every two minutes.


Map Options




Map Legend


Flown Route
Filed Route
Departure Airport
Arrival Airport
Navaid (VOR, NDB)
Fix

Horizontal Profiles

Position Reports

Time Latitude Longitude Heading Altitude Ground
Speed
01-Dec-19 20:12 33.671975 -117.867498 206 59ft 0kts
01-Dec-19 20:13 33.671975 -117.867498 206 59ft 0kts
01-Dec-19 20:14 33.671975 -117.867498 206 59ft 0kts
01-Dec-19 20:15 33.671975 -117.867498 206 59ft 0kts
01-Dec-19 20:16 33.671975 -117.867498 206 59ft 0kts
01-Dec-19 20:18 33.671975 -117.867498 206 59ft 0kts
01-Dec-19 20:19 33.671975 -117.867498 206 59ft 0kts
01-Dec-19 20:20 33.671975 -117.867498 206 59ft 0kts
01-Dec-19 20:21 33.671975 -117.867498 206 59ft 0kts
01-Dec-19 20:22 33.671975 -117.867498 206 59ft 0kts
01-Dec-19 20:23 33.671975 -117.867498 206 59ft 0kts
01-Dec-19 20:24 33.671975 -117.867498 206 59ft 0kts
01-Dec-19 20:25 33.671975 -117.867498 206 59ft 0kts
01-Dec-19 20:26 33.671975 -117.867498 206 59ft 0kts
01-Dec-19 20:27 33.671975 -117.867498 206 59ft 0kts
01-Dec-19 20:28 33.671975 -117.867498 206 59ft 0kts
01-Dec-19 20:29 33.671975 -117.867498 206 59ft 0kts
01-Dec-19 20:30 33.671975 -117.867498 206 59ft 0kts
01-Dec-19 20:31 33.671975 -117.867498 206 59ft 0kts
01-Dec-19 20:32 33.672313 -117.867588 10 59ft 12kts
01-Dec-19 20:33 33.674476 -117.866865 26 59ft 21kts
01-Dec-19 20:34 33.677750 -117.864803 31 59ft 30kts
01-Dec-19 20:35 33.679989 -117.863681 298 59ft 0kts
01-Dec-19 20:36 33.679989 -117.863683 298 59ft 0kts
01-Dec-19 20:37 33.679998 -117.863701 298 59ft 3kts
01-Dec-19 20:37 33.679692 -117.864431 208 59ft 23kts
01-Dec-19 20:39 33.669992 -117.870517 208 263ft 74kts
01-Dec-19 20:40 33.658905 -117.873785 187 710ft 75kts
01-Dec-19 20:40 33.649059 -117.874626 184 1090ft 77kts
01-Dec-19 20:42 33.634852 -117.875420 186 1640ft 77kts
01-Dec-19 20:42 33.625250 -117.871754 124 2011ft 87kts
01-Dec-19 20:43 33.619379 -117.857461 116 2449ft 88kts
01-Dec-19 20:45 33.612745 -117.840159 121 2912ft 92kts
01-Dec-19 20:45 33.606387 -117.827420 128 3178ft 101kts
01-Dec-19 20:46 33.597649 -117.813223 128 3555ft 101kts
01-Dec-19 20:47 33.587883 -117.797682 131 3756ft 111kts
01-Dec-19 20:48 33.579940 -117.782635 130 4211ft 98kts
01-Dec-19 20:49 33.571582 -117.769622 145 4607ft 90kts
01-Dec-19 20:50 33.563011 -117.757025 131 4949ft 95kts
01-Dec-19 20:51 33.553749 -117.742815 136 5052ft 105kts
01-Dec-19 20:52 33.542023 -117.726550 139 5019ft 119kts
01-Dec-19 20:53 33.528076 -117.711062 135 5000ft 121kts
01-Dec-19 20:54 33.516253 -117.693065 133 4995ft 121kts
01-Dec-19 20:55 33.502535 -117.674499 137 4990ft 120kts
01-Dec-19 20:56 33.488024 -117.656077 141 4988ft 120kts
01-Dec-19 20:57 33.473214 -117.637439 139 4994ft 120kts
01-Dec-19 20:58 33.458402 -117.618252 132 4999ft 121kts
01-Dec-19 20:59 33.445803 -117.597493 135 4998ft 121kts
01-Dec-19 21:00 33.430975 -117.578679 139 5002ft 120kts
01-Dec-19 21:01 33.418097 -117.559822 131 5009ft 121kts
01-Dec-19 21:02 33.405781 -117.540985 120 4999ft 125kts
01-Dec-19 21:03 33.401424 -117.516932 102 5005ft 126kts
01-Dec-19 21:04 33.397623 -117.491340 102 5008ft 126kts
01-Dec-19 21:05 33.393564 -117.464970 105 5015ft 126kts
01-Dec-19 21:06 33.389156 -117.438700 104 5016ft 126kts
01-Dec-19 21:07 33.385450 -117.412617 105 5019ft 126kts
01-Dec-19 21:08 33.381594 -117.386185 101 5025ft 126kts
01-Dec-19 21:09 33.378030 -117.360311 101 5030ft 126kts
01-Dec-19 21:10 33.374308 -117.335209 105 5027ft 126kts
01-Dec-19 21:11 33.370939 -117.310595 102 5003ft 127kts
01-Dec-19 21:12 33.367978 -117.286098 104 4986ft 126kts
01-Dec-19 21:13 33.364607 -117.261396 100 4971ft 126kts
01-Dec-19 21:14 33.361274 -117.236466 100 4983ft 126kts
01-Dec-19 21:15 33.358130 -117.211478 101 4992ft 126kts
01-Dec-19 21:16 33.354781 -117.186429 107 4996ft 126kts
01-Dec-19 21:17 33.340965 -117.167753 142 4988ft 121kts
01-Dec-19 21:18 33.326069 -117.150872 143 5025ft 118kts
01-Dec-19 21:19 33.311007 -117.133940 140 5030ft 120kts
01-Dec-19 21:20 33.297032 -117.117333 139 5035ft 120kts
01-Dec-19 21:21 33.283089 -117.100826 140 5042ft 120kts
01-Dec-19 21:22 33.269167 -117.083971 144 5049ft 119kts
01-Dec-19 21:23 33.254831 -117.067296 141 5038ft 118kts
01-Dec-19 21:24 33.240393 -117.051072 143 4804ft 112kts
01-Dec-19 21:25 33.226910 -117.035216 140 4319ft 115kts
01-Dec-19 21:26 33.209797 -117.024370 161 3782ft 104kts
01-Dec-19 21:27 33.193518 -117.015314 164 3508ft 100kts
01-Dec-19 21:28 33.180504 -117.021690 220 3592ft 83kts
01-Dec-19 21:29 33.170085 -117.033679 238 3736ft 81kts
01-Dec-19 21:30 33.164821 -117.050145 258 3647ft 92kts
01-Dec-19 21:31 33.162010 -117.068285 260 3548ft 91kts
01-Dec-19 21:32 33.159282 -117.085858 259 3525ft 89kts
01-Dec-19 21:33 33.156765 -117.104257 252 3423ft 92kts
01-Dec-19 21:34 33.153337 -117.124106 260 2915ft 99kts
01-Dec-19 21:35 33.150247 -117.142432 259 2602ft 85kts
01-Dec-19 21:36 33.147873 -117.159572 256 2376ft 78kts
01-Dec-19 21:37 33.144851 -117.177504 264 2011ft 81kts
01-Dec-19 21:38 33.141937 -117.195513 260 1672ft 92kts
01-Dec-19 21:39 33.138800 -117.214650 260 1364ft 91kts
01-Dec-19 21:40 33.135366 -117.235775 261 1020ft 86kts
01-Dec-19 21:41 33.132289 -117.254864 260 674ft 88kts
01-Dec-19 21:42 33.129550 -117.271911 259 361ft 70kts
01-Dec-19 21:43 33.127519 -117.280023 230 334ft 0kts
01-Dec-19 21:44 33.127519 -117.280022 230 334ft 0kts
01-Dec-19 21:45 33.127519 -117.280022 230 334ft 0kts
01-Dec-19 21:46 33.127146 -117.278918 356 334ft 0kts

Navigation Log

Ident Type
Flight plan parsing failed, navigation log unavailable